Time;durP1;ratioP1;P1;durP2;ratioP2;P2;SDS_P1;SDS_P2;PMS_P1;PMS_P2;Temp;Humidity;BMP_temperature;BMP_pressure;BME280_temperature;BME280_humidity;BME280_pressure;Samples;Min_cycle;Max_cycle;Signal;HPM_P1;HPM_P2
2022/03/14 00:00:07;;;;;;;;;;;5.30;79.30;;;;;;5031895;28;19913;-70
2022/03/14 00:02:34;;;;;;;;;;;5.30;79.10;;;;;;5030898;28;20374;-70
2022/03/14 00:05:00;;;;;;;;;;;5.40;77.10;;;;;;5031710;28;19909;-70
2022/03/14 00:07:26;;;;;;;;;;;5.70;77.40;;;;;;5031970;28;19909;-70
2022/03/14 00:09:52;;;;;;;;;;;5.70;78.30;;;;;;5031826;28;19992;-70
2022/03/14 00:12:20;;;;;;;;;;;5.70;77.30;;;;;;5050951;28;19912;-69
2022/03/14 00:14:46;;;;;;;;;;;5.70;78.40;;;;;;5050908;28;19917;-70
2022/03/14 00:17:11;;;;;;;;;;;5.80;76.60;;;;;;5050804;28;19917;-70
2022/03/14 00:19:40;;;;;;;;;;;5.80;76.40;;;;;;5046769;28;19920;-69
2022/03/14 00:22:08;;;;;;;;;;;5.80;76.20;;;;;;5041052;28;19909;-69
2022/03/14 00:24:35;;;;;;;;;;;5.90;76.00;;;;;;5050772;28;19916;-70
2022/03/14 00:27:01;;;;;;;;;;;5.70;77.00;;;;;;5050772;28;19920;-70
2022/03/14 00:29:28;;;;;;;;;;;5.70;77.50;;;;;;5050647;28;19913;-70
2022/03/14 00:31:53;;;;;;;;;;;5.60;78.70;;;;;;5050777;28;19909;-70
2022/03/14 00:34:19;;;;;;;;;;;5.80;77.20;;;;;;5050491;28;19963;-69
2022/03/14 00:36:44;;;;;;;;;;;5.90;75.80;;;;;;5050812;28;19909;-70
2022/03/14 00:39:10;;;;;;;;;;;5.90;76.60;;;;;;5050785;28;19908;-69
2022/03/14 00:41:35;;;;;;;;;;;5.70;78.30;;;;;;5050490;28;19916;-70
2022/03/14 00:44:02;;;;;;;;;;;5.80;77.20;;;;;;5050375;28;19932;-70
2022/03/14 00:46:28;;;;;;;;;;;6.30;74.50;;;;;;5050512;28;20015;-70
2022/03/14 00:48:55;;;;;;;;;;;6.60;73.80;;;;;;5050588;28;20039;-70
2022/03/14 00:51:21;;;;;;;;;;;6.60;74.20;;;;;;5040944;28;19909;-70
2022/03/14 00:53:46;;;;;;;;;;;6.60;73.80;;;;;;5036262;28;19958;-70
2022/03/14 00:56:13;;;;;;;;;;;6.60;73.80;;;;;;5031516;28;19915;-69
2022/03/14 00:58:39;;;;;;;;;;;6.50;74.90;;;;;;5031398;28;19924;-70
2022/03/14 01:01:05;;;;;;;;;;;6.60;73.90;;;;;;5031491;28;19980;-70
2022/03/14 01:03:32;;;;;;;;;;;6.90;72.20;;;;;;5031052;28;20274;-70
2022/03/14 01:05:57;;;;;;;;;;;7.20;71.00;;;;;;5031437;28;20007;-70
2022/03/14 01:08:23;;;;;;;;;;;7.30;71.00;;;;;;5031356;28;20398;-70
2022/03/14 01:10:48;;;;;;;;;;;7.50;71.60;;;;;;5031222;28;19909;-70
2022/03/14 01:13:14;;;;;;;;;;;7.80;71.00;;;;;;5031131;28;20022;-70
2022/03/14 01:15:40;;;;;;;;;;;7.90;70.50;;;;;;5034823;28;19928;-70
2022/03/14 01:18:05;;;;;;;;;;;7.80;72.40;;;;;;5034892;28;19913;-70
2022/03/14 01:20:31;;;;;;;;;;;7.50;74.80;;;;;;5041167;28;19909;-70
2022/03/14 01:22:57;;;;;;;;;;;7.50;78.30;;;;;;5039806;28;19913;-70
2022/03/14 01:25:26;;;;;;;;;;;7.50;80.20;;;;;;5034325;28;20019;-70
2022/03/14 01:27:52;;;;;;;;;;;7.60;82.60;;;;;;5034625;28;19956;-70
2022/03/14 01:30:19;;;;;;;;;;;7.80;83.40;;;;;;5034598;28;19943;-70
2022/03/14 01:32:45;;;;;;;;;;;7.70;84.00;;;;;;5034423;28;20006;-70
2022/03/14 01:35:10;;;;;;;;;;;7.50;83.70;;;;;;5034726;28;19944;-70
2022/03/14 01:37:36;;;;;;;;;;;7.40;82.80;;;;;;5034527;28;19909;-70
2022/03/14 01:40:01;;;;;;;;;;;7.30;82.60;;;;;;5034291;28;19913;-70
2022/03/14 01:42:27;;;;;;;;;;;7.40;83.60;;;;;;5034300;28;20413;-70
2022/03/14 01:44:52;;;;;;;;;;;7.40;86.90;;;;;;5034226;28;20363;-70
2022/03/14 01:47:18;;;;;;;;;;;7.50;89.90;;;;;;5034358;28;20506;-70
2022/03/14 01:49:44;;;;;;;;;;;7.50;90.40;;;;;;5034132;28;19910;-70
2022/03/14 01:52:11;;;;;;;;;;;7.50;91.20;;;;;;5041549;28;20374;-70
2022/03/14 01:54:37;;;;;;;;;;;7.60;92.20;;;;;;5033844;28;20453;-70
2022/03/14 01:57:04;;;;;;;;;;;7.70;93.20;;;;;;5053301;28;19916;-70
2022/03/14 01:59:29;;;;;;;;;;;7.80;93.90;;;;;;5053171;28;19909;-70
2022/03/14 02:01:56;;;;;;;;;;;7.90;94.70;;;;;;5053112;28;19996;-70
2022/03/14 02:04:22;;;;;;;;;;;8.10;95.60;;;;;;5052811;28;19913;-70
2022/03/14 02:06:50;;;;;;;;;;;8.10;96.40;;;;;;5053025;28;19995;-72
2022/03/14 02:09:16;;;;;;;;;;;8.10;97.30;;;;;;5053019;28;19940;-70
2022/03/14 02:11:52;;;;;;;;;;;8.10;97.90;;;;;;5052838;28;20266;-70
2022/03/14 02:14:18;;;;;;;;;;;8.10;98.90;;;;;;5052597;28;20366;-70
2022/03/14 02:16:43;;;;;;;;;;;8.20;99.10;;;;;;5052956;28;19923;-70
2022/03/14 02:19:09;;;;;;;;;;;8.10;99.80;;;;;;5052777;28;19954;-70
2022/03/14 02:21:34;;;;;;;;;;;8.00;99.90;;;;;;5050107;28;19932;-70
2022/03/14 02:24:01;;;;;;;;;;;8.00;99.90;;;;;;5035511;28;20286;-70
2022/03/14 02:26:26;;;;;;;;;;;8.10;99.90;;;;;;5032527;28;19920;-70
2022/03/14 02:28:52;;;;;;;;;;;8.20;99.90;;;;;;5033428;28;19909;-70
2022/03/14 02:31:17;;;;;;;;;;;8.10;99.90;;;;;;5033443;28;19909;-70
2022/03/14 02:33:43;;;;;;;;;;;8.00;99.90;;;;;;5033383;28;19916;-70
2022/03/14 02:36:08;;;;;;;;;;;7.80;99.90;;;;;;5033406;28;19909;-70
2022/03/14 02:38:33;;;;;;;;;;;7.60;99.90;;;;;;5033431;28;19952;-69
2022/03/14 02:40:59;;;;;;;;;;;7.30;99.90;;;;;;5033310;28;19909;-70
2022/03/14 02:43:24;;;;;;;;;;;7.10;99.90;;;;;;5032931;28;20348;-70
2022/03/14 02:45:51;;;;;;;;;;;7.10;99.90;;;;;;5033252;28;19961;-70
2022/03/14 02:48:17;;;;;;;;;;;7.00;99.90;;;;;;5033126;28;20358;-70
2022/03/14 02:50:43;;;;;;;;;;;6.90;99.90;;;;;;5039468;28;19909;-70
2022/03/14 02:53:09;;;;;;;;;;;6.80;99.90;;;;;;5038251;28;19909;-70
2022/03/14 02:55:36;;;;;;;;;;;6.70;99.90;;;;;;5033116;28;19916;-70
2022/03/14 02:58:01;;;;;;;;;;;6.70;99.90;;;;;;5032999;28;19944;-70
2022/03/14 03:00:27;;;;;;;;;;;6.60;99.90;;;;;;5032944;28;19967;-70
2022/03/14 03:02:53;;;;;;;;;;;6.60;99.90;;;;;;5032724;28;20027;-70
2022/03/14 03:05:18;;;;;;;;;;;6.60;99.90;;;;;;5032524;28;20374;-70
2022/03/14 03:07:45;;;;;;;;;;;6.60;99.90;;;;;;5032866;28;20344;-70
2022/03/14 03:10:11;;;;;;;;;;;6.60;99.90;;;;;;5032663;28;20274;-70
2022/03/14 03:12:40;;;;;;;;;;;6.60;99.90;;;;;;5032636;28;19913;-70
2022/03/14 03:15:06;;;;;;;;;;;6.60;99.90;;;;;;5032488;28;19911;-70
2022/03/14 03:17:31;;;;;;;;;;;6.40;99.90;;;;;;5032629;28;20404;-70
2022/03/14 03:19:57;;;;;;;;;;;6.40;99.90;;;;;;5033932;28;19921;-70
2022/03/14 03:22:25;;;;;;;;;;;6.30;99.90;;;;;;5044817;28;19963;-70
2022/03/14 03:24:50;;;;;;;;;;;6.30;99.90;;;;;;5032367;28;19908;-70
2022/03/14 03:27:16;;;;;;;;;;;6.30;99.90;;;;;;5032480;28;19967;-70
2022/03/14 03:29:41;;;;;;;;;;;6.40;99.90;;;;;;5032324;28;19963;-70
2022/03/14 03:32:07;;;;;;;;;;;6.40;99.90;;;;;;5032843;28;19920;-70
2022/03/14 03:34:33;;;;;;;;;;;6.30;99.90;;;;;;5031934;28;19917;-70
2022/03/14 03:36:58;;;;;;;;;;;6.30;99.90;;;;;;5032204;28;19931;-70
2022/03/14 03:39:24;;;;;;;;;;;6.30;99.90;;;;;;5032231;28;19913;-70
2022/03/14 03:41:49;;;;;;;;;;;6.30;99.90;;;;;;5032203;28;19916;-70
2022/03/14 03:44:15;;;;;;;;;;;6.20;99.90;;;;;;5051164;28;19909;-70
2022/03/14 03:46:40;;;;;;;;;;;6.20;99.90;;;;;;5051303;28;19913;-70
2022/03/14 03:49:06;;;;;;;;;;;6.20;99.90;;;;;;5051061;28;19932;-70
2022/03/14 03:51:31;;;;;;;;;;;6.20;99.90;;;;;;5042142;28;19913;-69
2022/03/14 03:53:57;;;;;;;;;;;6.20;99.90;;;;;;5036046;28;20286;-70
2022/03/14 03:56:23;;;;;;;;;;;6.10;99.90;;;;;;5032157;28;19909;-70
2022/03/14 03:58:48;;;;;;;;;;;6.10;99.90;;;;;;5031620;28;19949;-70
2022/03/14 04:01:19;;;;;;;;;;;6.00;99.90;;;;;;5031934;28;19918;-69
2022/03/14 04:03:46;;;;;;;;;;;6.00;99.90;;;;;;5031536;28;19916;-70
2022/03/14 04:06:13;;;;;;;;;;;5.80;99.90;;;;;;5031719;28;19955;-70
2022/03/14 04:08:39;;;;;;;;;;;5.70;99.90;;;;;;5031763;28;20351;-70
2022/03/14 04:11:07;;;;;;;;;;;5.70;99.90;;;;;;5031906;28;19940;-70
2022/03/14 04:13:33;;;;;;;;;;;5.70;99.90;;;;;;5031630;28;19915;-70
2022/03/14 04:15:59;;;;;;;;;;;5.70;99.90;;;;;;5031775;28;20116;-69
2022/03/14 04:18:25;;;;;;;;;;;5.60;99.90;;;;;;5031707;28;19947;-70
2022/03/14 04:20:51;;;;;;;;;;;5.50;99.90;;;;;;5038095;28;19909;-71
2022/03/14 04:23:17;;;;;;;;;;;5.60;99.90;;;;;;5043053;28;19909;-70
2022/03/14 04:25:45;;;;;;;;;;;5.60;99.90;;;;;;5031811;28;19920;-70
2022/03/14 04:28:11;;;;;;;;;;;5.70;99.90;;;;;;5031724;28;19976;-70
2022/03/14 04:30:37;;;;;;;;;;;5.70;99.90;;;;;;5031689;28;19917;-70
2022/03/14 04:33:02;;;;;;;;;;;5.80;99.90;;;;;;5031520;28;20031;-69
2022/03/14 04:35:28;;;;;;;;;;;5.80;99.90;;;;;;5031750;28;20051;-70
2022/03/14 04:37:54;;;;;;;;;;;5.80;99.90;;;;;;5031644;28;19916;-70
2022/03/14 04:40:20;;;;;;;;;;;5.80;99.90;;;;;;5035968;28;19916;-70
2022/03/14 04:42:45;;;;;;;;;;;5.80;99.90;;;;;;5043993;28;19909;-70
2022/03/14 04:45:11;;;;;;;;;;;5.90;99.90;;;;;;5031294;28;19919;-70
2022/03/14 04:47:37;;;;;;;;;;;5.80;99.90;;;;;;5031674;28;20286;-70
2022/03/14 04:50:03;;;;;;;;;;;5.90;99.90;;;;;;5034612;28;19944;-70
2022/03/14 04:52:28;;;;;;;;;;;5.80;99.90;;;;;;5035528;28;19909;-70
2022/03/14 04:54:54;;;;;;;;;;;5.80;99.90;;;;;;5035133;28;19909;-70
2022/03/14 04:57:20;;;;;;;;;;;5.90;99.90;;;;;;5035303;28;20338;-70
2022/03/14 04:59:45;;;;;;;;;;;6.00;99.90;;;;;;5033707;28;19936;-69
2022/03/14 05:02:11;;;;;;;;;;;5.90;99.90;;;;;;5039691;28;19932;-70
2022/03/14 05:04:38;;;;;;;;;;;5.80;99.90;;;;;;5040483;28;19913;-70
2022/03/14 05:07:06;;;;;;;;;;;5.70;99.90;;;;;;5035256;28;20063;-70
2022/03/14 05:09:32;;;;;;;;;;;5.70;99.90;;;;;;5037832;28;19966;-70
2022/03/14 05:11:57;;;;;;;;;;;5.70;99.90;;;;;;5045644;28;19909;-70
2022/03/14 05:14:23;;;;;;;;;;;5.60;99.90;;;;;;5043298;28;19910;-70
2022/03/14 05:16:49;;;;;;;;;;;5.50;99.90;;;;;;5034896;28;20366;-70
2022/03/14 05:19:14;;;;;;;;;;;5.30;99.90;;;;;;5034969;28;19956;-69
2022/03/14 05:21:40;;;;;;;;;;;5.00;99.90;;;;;;5034854;28;19991;-70
2022/03/14 05:24:06;;;;;;;;;;;5.20;99.90;;;;;;5034684;28;19909;-70
2022/03/14 05:26:32;;;;;;;;;;;5.10;99.90;;;;;;5034704;28;19917;-70
2022/03/14 05:28:57;;;;;;;;;;;5.10;99.90;;;;;;5034570;28;20344;-70
2022/03/14 05:31:23;;;;;;;;;;;5.20;99.90;;;;;;5034669;28;19980;-70
2022/03/14 05:33:48;;;;;;;;;;;5.20;99.90;;;;;;5034456;28;20285;-70
2022/03/14 05:36:14;;;;;;;;;;;5.10;99.90;;;;;;5034572;28;19909;-70
2022/03/14 05:38:40;;;;;;;;;;;5.10;99.90;;;;;;5034600;28;19929;-70
2022/03/14 05:41:05;;;;;;;;;;;5.00;99.90;;;;;;5044449;28;19955;-70
2022/03/14 05:43:36;;;;;;;;;;;5.10;99.90;;;;;;5035913;28;19936;-70
2022/03/14 05:46:05;;;;;;;;;;;5.20;99.90;;;;;;5034563;28;20432;-70
2022/03/14 05:48:32;;;;;;;;;;;5.30;99.90;;;;;;5034352;28;20393;-70
2022/03/14 05:50:57;;;;;;;;;;;5.30;99.90;;;;;;5034160;28;19913;-70
2022/03/14 05:53:23;;;;;;;;;;;5.30;99.90;;;;;;5033948;28;19916;-70
2022/03/14 05:55:48;;;;;;;;;;;5.30;99.90;;;;;;5034285;28;19909;-69
2022/03/14 05:58:14;;;;;;;;;;;5.40;99.90;;;;;;5034103;28;20320;-70
2022/03/14 06:00:39;;;;;;;;;;;5.40;99.90;;;;;;5034060;28;19916;-70
2022/03/14 06:03:05;;;;;;;;;;;5.50;99.90;;;;;;5033737;28;19915;-70
2022/03/14 06:05:30;;;;;;;;;;;5.50;99.90;;;;;;5033930;28;20126;-71
2022/03/14 06:07:56;;;;;;;;;;;5.60;99.90;;;;;;5034089;28;20306;-70
2022/03/14 06:10:22;;;;;;;;;;;5.70;99.90;;;;;;5036900;28;20278;-69
2022/03/14 06:12:47;;;;;;;;;;;5.70;99.90;;;;;;5048932;28;19913;-70
2022/03/14 06:15:14;;;;;;;;;;;5.70;99.90;;;;;;5033762;28;20324;-70
2022/03/14 06:17:43;;;;;;;;;;;5.70;99.90;;;;;;5033935;28;19917;-71
2022/03/14 06:20:12;;;;;;;;;;;5.70;99.90;;;;;;5033583;28;19913;-70
2022/03/14 06:22:39;;;;;;;;;;;5.80;99.90;;;;;;5033746;28;20405;-70
2022/03/14 06:25:05;;;;;;;;;;;5.80;99.90;;;;;;5033324;28;19916;-70
2022/03/14 06:27:30;;;;;;;;;;;5.80;99.90;;;;;;5033421;28;19917;-70
2022/03/14 06:29:56;;;;;;;;;;;5.70;99.90;;;;;;5033517;28;20359;-70
2022/03/14 06:32:21;;;;;;;;;;;5.80;99.90;;;;;;5033524;28;19915;-69
2022/03/14 06:34:47;;;;;;;;;;;5.80;99.90;;;;;;5033197;28;19920;-70
2022/03/14 06:37:13;;;;;;;;;;;5.80;99.90;;;;;;5033417;28;19909;-70
2022/03/14 06:39:38;;;;;;;;;;;5.70;99.90;;;;;;5036348;28;19916;-70
2022/03/14 06:42:08;;;;;;;;;;;5.70;99.90;;;;;;5034507;28;20035;-69
2022/03/14 06:44:34;;;;;;;;;;;5.80;99.90;;;;;;5037897;28;19952;-70
2022/03/14 06:47:00;;;;;;;;;;;5.80;99.90;;;;;;5033423;28;20285;-70
2022/03/14 06:49:26;;;;;;;;;;;5.80;99.90;;;;;;5033230;28;19909;-69
2022/03/14 06:51:52;;;;;;;;;;;5.90;99.90;;;;;;5033073;28;19909;-70
2022/03/14 06:54:17;;;;;;;;;;;6.00;99.90;;;;;;5032814;28;19992;-70
2022/03/14 06:56:43;;;;;;;;;;;5.90;99.90;;;;;;5033059;28;19909;-70
2022/03/14 06:59:09;;;;;;;;;;;5.80;99.90;;;;;;5036762;28;19955;-70
2022/03/14 07:01:34;;;;;;;;;;;5.60;99.90;;;;;;5032428;28;19955;-70
2022/03/14 07:04:01;;;;;;;;;;;5.40;99.90;;;;;;5038813;28;19909;-69
2022/03/14 07:06:27;;;;;;;;;;;5.30;99.90;;;;;;5043741;28;19920;-70
2022/03/14 07:08:52;;;;;;;;;;;5.10;99.90;;;;;;5040451;28;19909;-69
2022/03/14 07:11:17;;;;;;;;;;;5.10;99.90;;;;;;5046131;28;19913;-70
2022/03/14 07:13:43;;;;;;;;;;;5.20;99.90;;;;;;5038062;28;19915;-70
2022/03/14 07:16:08;;;;;;;;;;;5.50;99.90;;;;;;5039371;28;20398;-70
2022/03/14 07:18:34;;;;;;;;;;;5.80;99.90;;;;;;5031056;28;20013;-70
2022/03/14 07:21:00;;;;;;;;;;;6.10;99.90;;;;;;5030952;28;20314;-69
2022/03/14 07:23:25;;;;;;;;;;;6.30;99.90;;;;;;5031203;28;19909;-70
2022/03/14 07:25:51;;;;;;;;;;;6.20;99.90;;;;;;5031505;28;19920;-69
2022/03/14 07:28:17;;;;;;;;;;;6.30;99.90;;;;;;5039644;28;20000;-69
2022/03/14 07:30:42;;;;;;;;;;;6.60;99.90;;;;;;5038301;28;19916;-70
2022/03/14 07:33:08;;;;;;;;;;;7.00;99.90;;;;;;5041968;28;19909;-70
2022/03/14 07:35:35;;;;;;;;;;;7.00;99.90;;;;;;5035762;28;19909;-69
2022/03/14 07:38:02;;;;;;;;;;;6.80;99.90;;;;;;5033760;28;20009;-70
2022/03/14 07:40:27;;;;;;;;;;;6.60;99.90;;;;;;5039436;28;19917;-70
2022/03/14 07:42:54;;;;;;;;;;;6.60;99.90;;;;;;5034576;28;19920;-69
2022/03/14 07:45:21;;;;;;;;;;;6.60;99.90;;;;;;5037184;28;19916;-69
2022/03/14 07:47:47;;;;;;;;;;;6.60;99.90;;;;;;5051084;28;19913;-70
2022/03/14 07:50:15;;;;;;;;;;;6.60;99.90;;;;;;5051228;28;20194;-70
2022/03/14 07:52:41;;;;;;;;;;;6.80;99.90;;;;;;5051162;28;19913;-70
2022/03/14 07:55:07;;;;;;;;;;;6.80;99.90;;;;;;5042966;28;20325;-70
2022/03/14 07:57:33;;;;;;;;;;;6.90;99.90;;;;;;5038438;28;20439;-70
2022/03/14 07:59:59;;;;;;;;;;;7.10;99.90;;;;;;5041339;28;19913;-70
2022/03/14 08:02:25;;;;;;;;;;;7.30;99.90;;;;;;5037185;28;19909;-70
2022/03/14 08:04:50;;;;;;;;;;;7.90;99.90;;;;;;5033237;28;19952;-70
2022/03/14 08:07:17;;;;;;;;;;;8.00;99.90;;;;;;5038529;28;19913;-70
2022/03/14 08:09:42;;;;;;;;;;;8.70;99.90;;;;;;5052178;28;19913;-70
2022/03/14 08:12:09;;;;;;;;;;;10.20;99.90;;;;;;5035289;28;19955;-70
2022/03/14 08:14:35;;;;;;;;;;;11.00;98.70;;;;;;5043158;28;19952;-70
2022/03/14 08:17:00;;;;;;;;;;;12.60;94.30;;;;;;5031896;28;19953;-71
2022/03/14 08:19:26;;;;;;;;;;;10.70;95.20;;;;;;5032291;28;20415;-70
2022/03/14 08:21:52;;;;;;;;;;;9.10;98.00;;;;;;5031834;28;19925;-70
2022/03/14 08:24:18;;;;;;;;;;;8.50;99.90;;;;;;5038380;28;20406;-70
2022/03/14 08:26:43;;;;;;;;;;;8.40;99.90;;;;;;5041390;28;20287;-70
2022/03/14 08:29:09;;;;;;;;;;;8.20;99.90;;;;;;5033727;28;19916;-70
2022/03/14 08:31:35;;;;;;;;;;;8.10;99.90;;;;;;5045023;28;19916;-70
2022/03/14 08:34:01;;;;;;;;;;;8.00;99.90;;;;;;5037763;28;20254;-69
2022/03/14 08:36:27;;;;;;;;;;;7.90;99.90;;;;;;5038064;28;19936;-69
2022/03/14 08:38:52;;;;;;;;;;;8.00;99.90;;;;;;5036481;28;19910;-70
2022/03/14 08:41:18;;;;;;;;;;;8.30;99.90;;;;;;5040864;28;19909;-70
2022/03/14 08:43:44;;;;;;;;;;;10.40;99.70;;;;;;5036356;28;19909;-70
2022/03/14 08:46:10;;;;;;;;;;;10.90;95.50;;;;;;5034840;28;20420;-70
2022/03/14 08:48:35;;;;;;;;;;;11.70;95.20;;;;;;5035579;28;20437;-71
2022/03/14 08:51:01;;;;;;;;;;;11.00;93.50;;;;;;5035073;28;19916;-70
2022/03/14 08:53:27;;;;;;;;;;;11.70;93.60;;;;;;5035942;28;19936;-68
2022/03/14 08:55:53;;;;;;;;;;;13.60;91.40;;;;;;5034894;28;19948;-69
2022/03/14 08:58:18;;;;;;;;;;;13.40;90.30;;;;;;5035106;28;20362;-69
2022/03/14 09:00:44;;;;;;;;;;;10.40;92.40;;;;;;5034867;28;19909;-68
2022/03/14 09:03:09;;;;;;;;;;;9.60;93.90;;;;;;5040768;28;19909;-69
2022/03/14 09:05:35;;;;;;;;;;;9.30;95.50;;;;;;5038139;28;19913;-68
2022/03/14 09:08:01;;;;;;;;;;;8.70;94.60;;;;;;5043260;28;20008;-68
2022/03/14 09:10:26;;;;;;;;;;;8.50;96.80;;;;;;5039720;28;19920;-68
2022/03/14 09:12:52;;;;;;;;;;;8.90;97.30;;;;;;5043881;28;19912;-69
2022/03/14 09:15:18;;;;;;;;;;;12.30;93.80;;;;;;5034962;28;19909;-69
2022/03/14 09:17:50;;;;;;;;;;;14.80;86.20;;;;;;5033655;28;20456;-69
2022/03/14 09:20:17;;;;;;;;;;;15.20;83.20;;;;;;5033531;28;20366;-69
2022/03/14 09:22:44;;;;;;;;;;;15.80;80.50;;;;;;5033656;28;19991;-69
2022/03/14 09:25:11;;;;;;;;;;;17.10;76.40;;;;;;5033581;28;19913;-69
2022/03/14 09:27:37;;;;;;;;;;;17.70;71.50;;;;;;5033698;28;19916;-69
2022/03/14 09:30:03;;;;;;;;;;;17.80;70.40;;;;;;5048577;28;20262;-69
2022/03/14 09:32:28;;;;;;;;;;;17.60;67.60;;;;;;5040029;28;20048;-69
2022/03/14 09:34:54;;;;;;;;;;;16.90;64.20;;;;;;5032781;28;20402;-70
2022/03/14 09:37:19;;;;;;;;;;;17.50;66.90;;;;;;5033644;28;19909;-71
2022/03/14 09:39:45;;;;;;;;;;;16.90;65.20;;;;;;5041375;28;19909;-69
2022/03/14 09:42:11;;;;;;;;;;;17.30;65.40;;;;;;5037512;28;19909;-69
2022/03/14 09:44:40;;;;;;;;;;;17.60;63.40;;;;;;5038380;28;20016;-69
2022/03/14 09:47:06;;;;;;;;;;;16.40;63.90;;;;;;5033397;28;19924;-70
2022/03/14 09:49:32;;;;;;;;;;;17.20;67.20;;;;;;5033093;28;19913;-70
2022/03/14 09:51:59;;;;;;;;;;;18.50;62.60;;;;;;5033211;28;19913;-69
2022/03/14 09:54:24;;;;;;;;;;;18.70;60.70;;;;;;5033009;28;20408;-70
2022/03/14 09:56:50;;;;;;;;;;;21.10;58.50;;;;;;5046693;28;20007;-69
2022/03/14 09:59:15;;;;;;;;;;;18.50;59.30;;;;;;5052361;28;19966;-69
2022/03/14 10:01:41;;;;;;;;;;;15.90;63.10;;;;;;5052127;28;19915;-69
2022/03/14 10:04:10;;;;;;;;;;;14.40;70.20;;;;;;5051824;28;19909;-70
2022/03/14 10:06:36;;;;;;;;;;;14.80;67.20;;;;;;5033200;28;19916;-70
2022/03/14 10:09:02;;;;;;;;;;;18.30;63.70;;;;;;5040112;28;19948;-70
2022/03/14 10:11:28;;;;;;;;;;;20.20;59.00;;;;;;5053577;28;20261;-70
2022/03/14 10:13:53;;;;;;;;;;;20.60;58.40;;;;;;5032874;28;19909;-70
2022/03/14 10:16:19;;;;;;;;;;;21.90;53.70;;;;;;4976227;28;1785144;-70
2022/03/14 10:18:55;;;;;;;;;;;23.30;52.10;;;;;;5034122;28;20370;-71
2022/03/14 10:21:31;;;;;;;;;;;21.90;51.40;;;;;;5046889;28;19976;-70
2022/03/14 10:24:01;;;;;;;;;;;22.00;52.00;;;;;;5052773;28;19909;-71
2022/03/14 10:26:27;;;;;;;;;;;21.70;52.80;;;;;;5052870;28;20102;-72
2022/03/14 10:28:56;;;;;;;;;;;21.40;50.90;;;;;;5047278;28;19909;-72
2022/03/14 10:31:48;;;;;;;;;;;20.50;53.90;;;;;;5039296;28;19913;-71
2022/03/14 10:34:15;;;;;;;;;;;17.50;57.50;;;;;;5034477;28;20293;-71
2022/03/14 10:36:47;;;;;;;;;;;19.90;53.30;;;;;;5033653;28;20274;-71
2022/03/14 10:39:31;;;;;;;;;;;20.10;54.50;;;;;;5035865;28;19909;-71
2022/03/14 10:42:00;;;;;;;;;;;18.70;54.60;;;;;;5039681;28;20263;-71
2022/03/14 10:44:25;;;;;;;;;;;20.50;52.80;;;;;;5037371;28;19909;-73
2022/03/14 10:46:51;;;;;;;;;;;21.30;50.10;;;;;;5040402;28;19913;-71
2022/03/14 10:49:17;;;;;;;;;;;22.40;49.00;;;;;;5033325;28;20115;-70
2022/03/14 10:51:55;;;;;;;;;;;23.50;48.10;;;;;;5033274;28;19909;-70
2022/03/14 10:54:21;;;;;;;;;;;22.30;49.90;;;;;;5039008;28;19909;-69
2022/03/14 10:57:24;;;;;;;;;;;20.50;50.20;;;;;;5043837;28;20428;-69
2022/03/14 10:59:50;;;;;;;;;;;17.90;55.30;;;;;;5050615;28;19909;-69
2022/03/14 11:02:20;;;;;;;;;;;17.60;58.80;;;;;;5041339;28;20279;-70
2022/03/14 11:04:45;;;;;;;;;;;21.00;51.30;;;;;;5043500;28;19952;-70
2022/03/14 11:07:11;;;;;;;;;;;22.00;49.10;;;;;;5046537;28;19994;-70
2022/03/14 11:09:57;;;;;;;;;;;23.20;48.40;;;;;;5055510;28;20378;-70
2022/03/14 11:12:24;;;;;;;;;;;23.70;45.90;;;;;;5037038;28;19909;-70
2022/03/14 11:14:51;;;;;;;;;;;23.60;44.80;;;;;;5032565;28;20374;-70
2022/03/14 11:17:17;;;;;;;;;;;23.20;46.40;;;;;;5033013;28;20394;-71
2022/03/14 11:19:43;;;;;;;;;;;22.60;47.00;;;;;;5032658;28;19913;-70
2022/03/14 11:22:12;;;;;;;;;;;22.80;45.70;;;;;;5032888;28;19916;-70
2022/03/14 11:24:42;;;;;;;;;;;22.20;44.70;;;;;;5032408;28;19913;-70
2022/03/14 11:27:15;;;;;;;;;;;22.50;44.80;;;;;;5032475;28;19921;-70
2022/03/14 11:29:41;;;;;;;;;;;21.70;44.50;;;;;;5033806;28;20000;-70
2022/03/14 11:32:09;;;;;;;;;;;24.00;44.70;;;;;;5037660;28;19913;-70
2022/03/14 11:34:35;;;;;;;;;;;23.60;43.10;;;;;;5032280;28;19909;-71
2022/03/14 11:37:01;;;;;;;;;;;22.40;45.10;;;;;;5032435;28;19909;-70
2022/03/14 11:39:27;;;;;;;;;;;23.30;44.20;;;;;;5032528;28;20259;-70
2022/03/14 11:41:54;;;;;;;;;;;23.30;41.80;;;;;;5041303;28;20048;-71
2022/03/14 11:44:20;;;;;;;;;;;24.30;42.20;;;;;;5034431;28;19952;-70
2022/03/14 11:46:46;;;;;;;;;;;25.90;39.80;;;;;;5032374;28;19956;-70
2022/03/14 11:49:15;;;;;;;;;;;25.40;39.50;;;;;;5032281;28;19909;-70
2022/03/14 11:51:41;;;;;;;;;;;25.40;39.80;;;;;;5032199;28;19909;-70
2022/03/14 11:54:13;;;;;;;;;;;24.30;40.00;;;;;;5032047;28;19995;-70
2022/03/14 11:56:55;;;;;;;;;;;22.20;43.40;;;;;;5032015;28;19963;-71
2022/03/14 11:59:27;;;;;;;;;;;23.50;42.00;;;;;;5032018;28;20356;-69
2022/03/14 12:01:55;;;;;;;;;;;21.80;41.20;;;;;;5032215;28;19916;-70
2022/03/14 12:04:34;;;;;;;;;;;18.30;50.20;;;;;;5031999;28;19909;-70
2022/03/14 12:07:10;;;;;;;;;;;16.70;54.70;;;;;;5045197;28;20377;-70
2022/03/14 12:09:37;;;;;;;;;;;15.00;56.50;;;;;;5042952;28;19915;-69
2022/03/14 12:12:05;;;;;;;;;;;13.70;56.20;;;;;;5041323;28;19916;-70
2022/03/14 12:14:38;;;;;;;;;;;13.60;58.90;;;;;;5045479;28;19909;-70
2022/03/14 12:17:21;;;;;;;;;;;13.30;59.40;;;;;;5051143;28;19970;-71
2022/03/14 12:19:54;;;;;;;;;;;13.10;61.30;;;;;;5050848;28;20282;-70
2022/03/14 12:22:35;;;;;;;;;;;13.10;60.50;;;;;;5050694;28;19932;-73
2022/03/14 12:25:02;;;;;;;;;;;13.20;62.30;;;;;;5050524;28;19912;-71
2022/03/14 12:27:33;;;;;;;;;;;13.50;62.40;;;;;;5050520;28;19916;-73
2022/03/14 12:29:59;;;;;;;;;;;13.50;61.40;;;;;;5054173;28;19909;-70
2022/03/14 12:32:37;;;;;;;;;;;13.60;62.10;;;;;;5042890;28;20378;-71
2022/03/14 12:35:05;;;;;;;;;;;13.50;61.10;;;;;;5031284;28;19910;-71
2022/03/14 12:37:36;;;;;;;;;;;13.40;61.50;;;;;;5031515;28;19909;-71
2022/03/14 12:40:06;;;;;;;;;;;13.40;63.10;;;;;;5037721;28;19967;-70
2022/03/14 12:42:39;;;;;;;;;;;13.20;62.20;;;;;;5037427;28;19913;-70
2022/03/14 12:45:27;;;;;;;;;;;13.40;61.70;;;;;;5030030;28;19916;-71
2022/03/14 12:47:57;;;;;;;;;;;13.40;61.90;;;;;;5032199;28;19919;-72
2022/03/14 12:50:42;;;;;;;;;;;13.30;60.90;;;;;;5041246;28;19915;-70
2022/03/14 12:53:07;;;;;;;;;;;13.20;60.10;;;;;;5029908;28;20370;-70
2022/03/14 12:55:33;;;;;;;;;;;12.80;61.60;;;;;;5030972;28;19913;-71
2022/03/14 12:57:59;;;;;;;;;;;12.80;61.50;;;;;;5036255;28;19909;-72
2022/03/14 13:00:26;;;;;;;;;;;13.20;63.10;;;;;;5031826;28;19910;-73
2022/03/14 13:02:51;;;;;;;;;;;13.40;62.40;;;;;;5050943;28;20265;-72
2022/03/14 13:05:20;;;;;;;;;;;13.20;59.10;;;;;;5033287;28;19913;-71
2022/03/14 13:07:59;;;;;;;;;;;13.20;58.50;;;;;;5033326;28;19966;-72
2022/03/14 13:10:36;;;;;;;;;;;13.10;60.80;;;;;;5040726;28;20339;-72
2022/03/14 13:13:01;;;;;;;;;;;13.10;60.00;;;;;;5048793;28;19955;-72
2022/03/14 13:15:27;;;;;;;;;;;13.20;60.20;;;;;;5034736;28;19913;-71
2022/03/14 13:17:52;;;;;;;;;;;13.10;60.90;;;;;;5034351;28;19913;-72
2022/03/14 13:20:22;;;;;;;;;;;13.00;60.70;;;;;;5034233;28;19913;-71
2022/03/14 13:22:48;;;;;;;;;;;13.00;59.50;;;;;;5034166;28;19948;-71
2022/03/14 13:25:28;;;;;;;;;;;12.90;59.40;;;;;;5034058;28;19975;-71
2022/03/14 13:27:54;;;;;;;;;;;12.70;59.20;;;;;;5034359;28;19920;-71
2022/03/14 13:30:19;;;;;;;;;;;12.90;59.90;;;;;;5043586;28;19910;-71
2022/03/14 13:32:45;;;;;;;;;;;12.90;60.80;;;;;;5036525;28;20100;-72
2022/03/14 13:35:11;;;;;;;;;;;12.80;60.70;;;;;;5034087;28;19909;-72
2022/03/14 13:37:43;;;;;;;;;;;12.90;59.30;;;;;;5034223;28;20366;-72
2022/03/14 13:40:19;;;;;;;;;;;12.80;59.00;;;;;;5038079;28;20314;-72
2022/03/14 13:42:45;;;;;;;;;;;12.80;59.60;;;;;;5038748;28;19915;-72
2022/03/14 13:45:10;;;;;;;;;;;12.50;59.00;;;;;;5034354;28;19914;-72
2022/03/14 13:47:36;;;;;;;;;;;12.50;59.20;;;;;;5033948;28;20420;-72
2022/03/14 13:50:02;;;;;;;;;;;12.50;61.80;;;;;;5033914;28;19909;-72
2022/03/14 13:52:28;;;;;;;;;;;12.70;60.40;;;;;;5033834;28;20021;-72
2022/03/14 13:54:53;;;;;;;;;;;12.70;59.20;;;;;;5032471;28;19909;-72
2022/03/14 13:57:22;;;;;;;;;;;12.60;59.80;;;;;;5033745;28;19912;-72
2022/03/14 13:59:49;;;;;;;;;;;12.60;60.10;;;;;;5033715;28;19925;-72
2022/03/14 14:02:16;;;;;;;;;;;12.50;60.10;;;;;;5034924;28;19909;-72
2022/03/14 14:04:45;;;;;;;;;;;12.50;59.10;;;;;;5045206;28;19920;-72
2022/03/14 14:07:13;;;;;;;;;;;12.60;60.50;;;;;;5041555;28;19920;-72
2022/03/14 14:09:40;;;;;;;;;;;12.60;61.30;;;;;;5045717;28;19913;-72
2022/03/14 14:12:19;;;;;;;;;;;12.80;60.60;;;;;;5046244;28;19910;-72
2022/03/14 14:14:57;;;;;;;;;;;13.10;62.40;;;;;;5046935;28;19909;-72
2022/03/14 14:17:23;;;;;;;;;;;12.90;59.80;;;;;;5046597;28;19932;-71
2022/03/14 14:19:59;;;;;;;;;;;12.90;61.40;;;;;;5039691;28;20384;-72
2022/03/14 14:22:38;;;;;;;;;;;13.20;61.40;;;;;;5038698;28;20448;-72
2022/03/14 14:25:07;;;;;;;;;;;13.10;58.90;;;;;;5040684;28;20267;-72